Time;durP1;ratioP1;P1;durP2;ratioP2;P2;SDS_P1;SDS_P2;PMS_P1;PMS_P2;Temp;Humidity;BMP_temperature;BMP_pressure;BME280_temperature;BME280_humidity;BME280_pressure;Samples;Min_cycle;Max_cycle;Signal;HPM_P1;HPM_P2
2021/12/04 00:02:24;;;;;;;4.00;3.57;;;2.80;99.90;;;;;;6178666;23;20429;-85
2021/12/04 00:04:52;;;;;;;4.30;3.10;;;2.80;99.90;;;;;;6175144;23;20395;-85
2021/12/04 00:07:18;;;;;;;3.90;3.57;;;2.70;99.90;;;;;;6202682;23;20493;-87
2021/12/04 00:09:50;;;;;;;3.87;3.57;;;2.60;99.90;;;;;;6177520;23;20395;-87
2021/12/04 00:12:17;;;;;;;3.83;3.47;;;2.60;99.90;;;;;;6176383;23;20780;-86
2021/12/04 00:14:44;;;;;;;5.10;3.60;;;2.60;99.90;;;;;;6174844;23;20391;-85
2021/12/04 00:17:16;;;;;;;4.13;3.67;;;2.60;99.90;;;;;;6176685;23;20410;-86
2021/12/04 00:19:42;;;;;;;4.27;3.87;;;2.60;99.90;;;;;;6177252;23;20464;-86
2021/12/04 00:22:08;;;;;;;4.37;3.50;;;2.80;99.90;;;;;;6176085;23;20403;-85
2021/12/04 00:24:34;;;;;;;4.60;4.00;;;2.80;99.90;;;;;;6176434;23;20220;-86
2021/12/04 00:26:59;;;;;;;3.70;3.37;;;2.70;99.90;;;;;;6176533;23;20230;-86
2021/12/04 00:29:26;;;;;;;4.30;3.93;;;2.80;99.90;;;;;;6175352;23;20185;-85
2021/12/04 00:32:04;;;;;;;4.23;3.80;;;2.80;99.90;;;;;;6175755;23;20164;-86
2021/12/04 00:34:30;;;;;;;7.83;5.30;;;2.90;99.90;;;;;;6175026;23;20397;-86
2021/12/04 00:37:26;;;;;;;5.37;4.63;;;3.10;99.90;;;;;;6174090;23;20404;-86
2021/12/04 00:50:48;;;;;;;6.30;4.40;;;3.30;99.90;;;;;;6198081;23;20441;-86
2021/12/04 00:53:14;;;;;;;6.33;5.33;;;3.30;99.90;;;;;;6172908;23;20418;-86
2021/12/04 00:55:40;;;;;;;6.23;3.90;;;3.40;99.90;;;;;;6149409;23;20175;-85
2021/12/04 00:58:06;;;;;;;5.50;4.50;;;3.40;99.90;;;;;;6178049;23;20843;-85
2021/12/04 01:00:31;;;;;;;4.60;3.80;;;3.40;99.90;;;;;;6178734;23;20168;-85
2021/12/04 01:02:57;;;;;;;4.10;3.70;;;3.40;99.90;;;;;;6178555;23;20160;-85
2021/12/04 01:05:23;;;;;;;4.90;4.37;;;3.40;99.90;;;;;;6176870;23;20246;-85
2021/12/04 01:07:48;;;;;;;3.90;3.50;;;3.40;99.90;;;;;;6173702;23;20248;-85
2021/12/04 01:10:14;;;;;;;8.23;4.20;;;3.50;99.90;;;;;;6174768;23;20167;-85
2021/12/04 01:12:40;;;;;;;5.67;4.03;;;3.50;99.90;;;;;;6173527;23;20699;-84
2021/12/04 01:15:08;;;;;;;4.60;4.20;;;3.50;99.90;;;;;;6149908;23;20937;-84
2021/12/04 01:17:34;;;;;;;4.93;3.70;;;3.50;99.90;;;;;;6173357;23;20409;-85
2021/12/04 01:20:01;;;;;;;4.77;4.10;;;3.50;99.90;;;;;;6174001;23;20485;-85
2021/12/04 01:22:28;;;;;;;5.00;4.10;;;3.40;99.90;;;;;;6173484;23;20222;-86
2021/12/04 01:24:56;;;;;;;4.30;3.80;;;3.40;99.90;;;;;;6171063;23;20398;-86
2021/12/04 01:27:23;;;;;;;4.67;3.93;;;3.40;99.90;;;;;;6185646;23;20908;-86
2021/12/04 01:30:10;;;;;;;3.47;3.17;;;3.30;99.90;;;;;;6149795;23;20446;-88
2021/12/04 01:32:35;;;;;;;3.50;2.97;;;3.30;99.90;;;;;;6174502;23;20399;-85
2021/12/04 01:35:01;;;;;;;8.73;4.00;;;3.20;99.90;;;;;;6175342;23;20718;-86
2021/12/04 01:37:26;;;;;;;6.10;4.30;;;3.20;99.90;;;;;;6175399;23;20541;-86
2021/12/04 01:39:52;;;;;;;4.40;4.10;;;3.20;99.90;;;;;;6175028;23;20545;-86
2021/12/04 01:42:20;;;;;;;7.33;5.10;;;3.10;99.90;;;;;;6174276;23;20173;-87
2021/12/04 01:44:47;;;;;;;6.10;4.70;;;3.00;99.90;;;;;;6174051;23;20167;-87
2021/12/04 01:47:21;;;;;;;5.43;4.93;;;3.00;99.90;;;;;;6199794;23;20446;-86
2021/12/04 01:49:49;;;;;;;6.97;5.23;;;3.00;99.90;;;;;;6173330;23;20395;-86
2021/12/04 01:52:17;;;;;;;6.60;5.13;;;2.90;99.90;;;;;;6174585;23;20399;-86
2021/12/04 01:54:44;;;;;;;8.23;5.33;;;2.80;99.90;;;;;;6174045;23;20425;-87
2021/12/04 01:57:13;;;;;;;6.23;4.20;;;2.70;99.90;;;;;;6177052;23;20433;-86
2021/12/04 01:59:39;;;;;;;5.40;3.90;;;2.70;99.90;;;;;;6176586;23;20737;-86
2021/12/04 02:02:04;;;;;;;6.50;4.67;;;2.60;99.90;;;;;;6202127;23;20406;-86
2021/12/04 02:04:30;;;;;;;5.33;3.73;;;2.50;99.90;;;;;;6174598;23;20214;-86
2021/12/04 02:06:56;;;;;;;4.87;4.27;;;2.50;99.90;;;;;;6174847;23;20203;-86
2021/12/04 02:09:22;;;;;;;5.97;4.77;;;2.50;99.90;;;;;;6174743;23;20204;-86
2021/12/04 02:11:48;;;;;;;5.17;4.50;;;2.50;99.90;;;;;;6173619;23;20167;-87
2021/12/04 02:14:14;;;;;;;5.77;4.67;;;2.50;99.90;;;;;;6175130;23;20394;-86
2021/12/04 02:16:42;;;;;;;6.77;4.77;;;2.50;99.90;;;;;;6175792;23;20166;-87
2021/12/04 02:19:07;;;;;;;5.27;4.57;;;2.50;99.90;;;;;;6174949;23;20182;-86
2021/12/04 02:21:33;;;;;;;6.50;4.67;;;2.50;99.90;;;;;;6174324;23;20403;-86
2021/12/04 02:23:59;;;;;;;5.17;4.20;;;2.50;99.90;;;;;;6172883;23;20217;-86
2021/12/04 02:26:25;;;;;;;4.83;4.00;;;2.50;99.90;;;;;;6173283;23;20281;-86
2021/12/04 02:28:51;;;;;;;8.50;4.80;;;2.60;99.90;;;;;;6175075;23;20414;-86
2021/12/04 02:31:17;;;;;;;7.10;5.00;;;2.50;99.90;;;;;;6173588;23;20471;-86
2021/12/04 02:33:43;;;;;;;5.20;4.70;;;2.50;99.90;;;;;;6173689;23;20249;-86
2021/12/04 02:36:08;;;;;;;5.17;4.30;;;2.60;99.90;;;;;;6176404;23;20465;-87
2021/12/04 02:38:35;;;;;;;6.10;5.50;;;2.60;99.90;;;;;;6174181;23;20210;-87
2021/12/04 02:41:01;;;;;;;4.90;4.33;;;2.70;99.90;;;;;;6174866;23;20310;-86
2021/12/04 02:43:32;;;;;;;7.57;5.20;;;2.70;99.90;;;;;;6174129;23;20457;-87
2021/12/04 02:46:00;;;;;;;8.40;5.13;;;2.70;99.90;;;;;;6174470;23;20441;-86
2021/12/04 02:48:26;;;;;;;6.97;5.30;;;2.60;99.90;;;;;;6175351;23;20860;-86
2021/12/04 02:50:53;;;;;;;6.37;5.03;;;2.50;99.90;;;;;;6175001;23;20888;-87
2021/12/04 02:53:19;;;;;;;6.03;5.17;;;2.50;99.90;;;;;;6171803;23;20777;-87
2021/12/04 02:55:45;;;;;;;5.10;4.57;;;2.50;99.90;;;;;;6173303;23;20406;-87
2021/12/04 02:58:16;;;;;;;7.43;4.93;;;2.60;99.90;;;;;;6174666;23;20167;-86
2021/12/04 03:00:49;;;;;;;6.27;4.60;;;2.60;99.90;;;;;;6201639;23;20393;-86
2021/12/04 03:03:18;;;;;;;5.67;5.00;;;2.60;99.90;;;;;;6175851;23;20486;-86
2021/12/04 03:05:57;;;;;;;5.60;5.10;;;2.70;99.90;;;;;;6174277;23;20426;-87
2021/12/04 03:08:25;;;;;;;7.37;4.80;;;2.60;99.90;;;;;;6174803;23;20434;-86
2021/12/04 03:10:52;;;;;;;7.27;5.17;;;2.70;99.90;;;;;;6174472;23;20398;-86
2021/12/04 03:13:20;;;;;;;6.47;5.17;;;2.70;99.90;;;;;;6174087;23;20402;-86
2021/12/04 03:15:49;;;;;;;7.83;5.90;;;2.80;99.90;;;;;;6174088;23;20704;-86
2021/12/04 03:18:15;;;;;;;5.53;4.90;;;2.80;99.90;;;;;;6176404;23;20399;-86
2021/12/04 03:20:44;;;;;;;5.17;4.67;;;2.70;99.90;;;;;;6174545;23;20460;-87
2021/12/04 03:23:17;;;;;;;6.53;4.93;;;2.70;99.90;;;;;;6172740;23;20160;-87
2021/12/04 03:25:47;;;;;;;6.80;5.33;;;2.70;99.90;;;;;;6175443;23;20445;-87
2021/12/04 03:28:15;;;;;;;8.17;5.20;;;2.70;99.90;;;;;;6175547;23;20537;-87
2021/12/04 03:30:46;;;;;;;7.87;5.20;;;2.80;99.90;;;;;;6174754;23;20403;-86
2021/12/04 03:44:10;;;;;;;7.83;5.60;;;3.00;99.90;;;;;;6184489;23;20399;-85
2021/12/04 03:46:35;;;;;;;8.27;5.23;;;3.00;99.90;;;;;;6175241;23;20453;-86
2021/12/04 03:49:03;;;;;;;6.00;4.57;;;2.90;99.90;;;;;;6175703;23;20163;-87
2021/12/04 03:51:29;;;;;;;5.83;4.90;;;3.00;99.90;;;;;;6175996;23;20190;-86
2021/12/04 03:53:55;;;;;;;7.57;5.17;;;3.00;99.90;;;;;;6150359;23;20394;-86
2021/12/04 03:56:22;;;;;;;7.23;5.20;;;2.90;99.90;;;;;;6178340;23;20417;-86
2021/12/04 03:58:55;;;;;;;6.17;4.53;;;2.90;99.90;;;;;;6178629;23;20402;-86
2021/12/04 04:01:23;;;;;;;6.60;5.37;;;2.90;99.90;;;;;;6154343;23;20406;-86
2021/12/04 04:03:49;;;;;;;5.93;4.90;;;3.00;99.90;;;;;;6172645;23;20391;-87
2021/12/04 04:06:16;;;;;;;6.57;4.90;;;2.90;99.90;;;;;;6176995;23;20529;-87
2021/12/04 04:08:41;;;;;;;5.13;4.60;;;3.00;99.90;;;;;;6175677;23;20391;-87
2021/12/04 04:11:07;;;;;;;4.80;4.30;;;3.00;99.90;;;;;;6175286;23;20514;-87
2021/12/04 04:13:33;;;;;;;4.87;3.53;;;3.00;99.90;;;;;;6176880;23;20597;-86
2021/12/04 04:16:00;;;;;;;5.00;4.17;;;3.00;99.90;;;;;;6176371;23;20395;-86
2021/12/04 04:18:27;;;;;;;5.20;4.60;;;3.10;99.90;;;;;;6176362;23;20670;-85
2021/12/04 04:20:53;;;;;;;4.80;4.37;;;3.00;99.90;;;;;;6176213;23;20410;-86
2021/12/04 04:23:19;;;;;;;7.17;5.33;;;3.00;99.90;;;;;;6174921;23;20727;-86
2021/12/04 04:25:44;;;;;;;5.40;4.03;;;3.00;99.90;;;;;;6175408;23;20245;-88
2021/12/04 04:28:10;;;;;;;3.70;3.40;;;3.00;99.90;;;;;;6175710;23;20484;-86
2021/12/04 04:30:37;;;;;;;4.87;3.70;;;3.00;99.90;;;;;;6177219;23;20234;-86
2021/12/04 04:33:04;;;;;;;4.03;3.63;;;3.10;99.90;;;;;;6171310;23;20175;-87
2021/12/04 04:35:32;;;;;;;4.73;4.20;;;3.10;99.90;;;;;;6202342;23;20383;-87
2021/12/04 05:13:18;;;;;;;4.20;3.50;;;3.30;99.90;;;;;;6205376;23;20399;-86
2021/12/04 05:20:51;;;;;;;5.70;4.27;;;3.30;99.90;;;;;;6200086;23;21036;-87
2021/12/04 05:23:19;;;;;;;6.43;5.77;;;3.30;99.90;;;;;;6173269;23;20387;-86
2021/12/04 05:25:45;;;;;;;5.33;4.70;;;3.20;99.90;;;;;;6175738;23;20462;-86
2021/12/04 05:28:10;;;;;;;7.53;5.47;;;3.20;99.90;;;;;;6173349;23;20861;-86
2021/12/04 05:30:39;;;;;;;5.57;4.90;;;3.20;99.90;;;;;;6148966;23;20428;-86
2021/12/04 05:33:16;;;;;;;6.83;5.00;;;3.30;99.90;;;;;;6172314;23;20557;-85
2021/12/04 05:35:48;;;;;;;5.53;5.00;;;3.30;99.90;;;;;;6181220;23;20382;-86
2021/12/04 05:38:17;;;;;;;5.23;4.73;;;3.30;99.90;;;;;;6173545;23;20935;-85
2021/12/04 05:40:50;;;;;;;5.73;4.60;;;3.40;99.90;;;;;;6169872;23;20392;-86
2021/12/04 05:43:18;;;;;;;7.13;4.23;;;3.40;99.90;;;;;;6175379;23;20408;-86
2021/12/04 05:45:52;;;;;;;7.07;4.40;;;3.50;99.90;;;;;;6175144;23;20431;-85
2021/12/04 05:51:17;;;;;;;6.23;5.20;;;3.50;99.90;;;;;;6200251;23;20465;-86
2021/12/04 05:56:15;;;;;;;4.83;3.70;;;3.50;99.90;;;;;;6201986;23;20386;-86
2021/12/04 05:58:42;;;;;;;4.53;4.13;;;3.50;99.90;;;;;;6204321;23;20506;-86
2021/12/04 06:01:08;;;;;;;4.43;3.70;;;3.60;99.90;;;;;;6177165;23;20895;-86
2021/12/04 06:03:35;;;;;;;5.40;3.90;;;3.80;99.90;;;;;;6174464;23;20457;-86
2021/12/04 06:06:02;;;;;;;5.17;3.97;;;3.80;99.90;;;;;;6173777;23;20485;-86
2021/12/04 06:08:34;;;;;;;4.33;3.93;;;3.80;99.90;;;;;;6173867;23;20465;-86
2021/12/04 06:11:26;;;;;;;4.30;3.90;;;3.90;99.90;;;;;;6197595;23;20396;-85
2021/12/04 06:13:52;;;;;;;4.27;3.87;;;3.80;99.90;;;;;;6173330;23;20461;-87
2021/12/04 06:16:18;;;;;;;4.37;3.97;;;3.90;99.90;;;;;;6175312;23;20749;-87
2021/12/04 06:18:46;;;;;;;4.20;3.80;;;4.00;99.90;;;;;;6174323;23;20175;-87
2021/12/04 06:23:57;;;;;;;4.00;3.27;;;4.00;99.90;;;;;;6179255;23;20474;-86
2021/12/04 06:26:22;;;;;;;4.03;3.03;;;4.10;99.90;;;;;;6148464;23;20442;-86
2021/12/04 06:28:48;;;;;;;3.30;3.00;;;4.10;99.90;;;;;;6174518;23;20254;-86
2021/12/04 06:31:21;;;;;;;3.30;3.00;;;4.20;99.90;;;;;;6173509;23;20430;-86
2021/12/04 06:34:13;;;;;;;4.13;3.40;;;4.20;99.90;;;;;;6201243;23;20397;-86
2021/12/04 06:36:40;;;;;;;3.60;3.30;;;4.20;99.90;;;;;;6174500;23;20731;-86
2021/12/04 06:39:06;;;;;;;4.27;3.30;;;4.20;99.90;;;;;;6174566;23;20918;-86
2021/12/04 06:41:31;;;;;;;3.90;3.43;;;4.20;99.90;;;;;;6174487;23;20712;-86
2021/12/04 06:43:57;;;;;;;3.50;3.20;;;4.30;99.90;;;;;;6174945;23;20164;-85
2021/12/04 06:46:23;;;;;;;3.40;3.10;;;4.40;99.90;;;;;;6173640;23;20746;-86
2021/12/04 06:51:39;;;;;;;3.60;2.60;;;4.40;99.90;;;;;;6200622;23;20446;-86
2021/12/04 06:54:17;;;;;;;3.53;3.10;;;4.40;99.90;;;;;;6174470;23;20797;-86
2021/12/04 06:57:09;;;;;;;2.80;2.60;;;4.40;99.90;;;;;;6174990;23;20581;-86
2021/12/04 07:00:01;;;;;;;3.40;2.70;;;4.50;99.90;;;;;;6198933;23;20451;-86
2021/12/04 07:02:29;;;;;;;4.70;3.63;;;4.50;99.90;;;;;;6169592;23;20402;-86
2021/12/04 07:05:02;;;;;;;3.50;3.03;;;4.50;99.90;;;;;;6176127;23;20720;-86
2021/12/04 07:07:28;;;;;;;4.20;3.70;;;4.60;99.90;;;;;;6174572;23;20447;-87
2021/12/04 07:09:54;;;;;;;11.60;9.30;;;4.70;99.90;;;;;;6177678;23;20876;-86
2021/12/04 07:12:19;;;;;;;20.83;15.50;;;4.70;99.90;;;;;;6178367;23;20176;-86
2021/12/04 07:14:45;;;;;;;6.30;5.70;;;4.80;99.90;;;;;;6174601;23;20537;-85
2021/12/04 07:17:11;;;;;;;14.80;10.17;;;4.80;99.90;;;;;;6174391;23;20221;-86
2021/12/04 07:19:37;;;;;;;8.60;5.83;;;4.80;99.90;;;;;;6177325;23;20543;-87
2021/12/04 07:22:03;;;;;;;8.30;6.20;;;4.80;99.90;;;;;;6171306;23;20437;-86
2021/12/04 07:24:31;;;;;;;10.37;8.17;;;4.70;99.90;;;;;;6171909;23;20189;-86
2021/12/04 07:26:57;;;;;;;5.20;4.70;;;4.70;99.90;;;;;;6174017;23;20543;-86
2021/12/04 07:29:23;;;;;;;3.80;3.50;;;4.80;99.90;;;;;;6173746;23;20980;-85
2021/12/04 07:31:49;;;;;;;5.50;4.47;;;4.80;99.90;;;;;;6168732;23;20970;-85
2021/12/04 07:34:15;;;;;;;2.67;2.47;;;4.90;99.90;;;;;;6172957;23;20604;-85
2021/12/04 07:36:40;;;;;;;2.83;2.63;;;5.00;99.90;;;;;;6175660;23;20158;-85
2021/12/04 07:39:06;;;;;;;2.97;2.00;;;5.00;99.90;;;;;;6174299;23;20228;-86
2021/12/04 07:41:37;;;;;;;2.03;1.93;;;5.00;99.90;;;;;;6177652;23;20167;-85
2021/12/04 07:44:04;;;;;;;2.90;2.30;;;5.00;99.90;;;;;;6174218;23;20204;-85
2021/12/04 07:46:30;;;;;;;3.07;2.77;;;5.10;99.90;;;;;;6173592;23;20770;-86
2021/12/04 07:48:55;;;;;;;3.90;2.73;;;5.00;99.90;;;;;;6176302;23;20401;-86
2021/12/04 07:51:43;;;;;;;2.23;2.10;;;5.10;99.90;;;;;;6175210;23;20166;-86
2021/12/04 07:54:09;;;;;;;3.07;2.87;;;5.10;99.90;;;;;;6174397;23;20167;-86
2021/12/04 07:56:40;;;;;;;2.90;2.60;;;5.20;99.90;;;;;;6175539;23;20398;-87
2021/12/04 07:59:05;;;;;;;4.13;2.60;;;5.10;99.90;;;;;;6176282;23;20395;-87
2021/12/04 08:01:31;;;;;;;3.53;2.77;;;5.20;99.90;;;;;;6171735;23;20415;-87
2021/12/04 08:03:57;;;;;;;4.20;2.87;;;5.10;99.90;;;;;;6164838;23;20248;-89
2021/12/04 08:06:36;;;;;;;3.80;3.40;;;5.20;99.90;;;;;;6166966;23;20197;-89
2021/12/04 08:09:07;;;;;;;3.00;2.47;;;5.20;99.90;;;;;;6166092;23;20903;-89
2021/12/04 08:11:37;;;;;;;2.67;1.90;;;5.30;99.90;;;;;;6167351;23;20745;-90
2021/12/04 08:14:04;;;;;;;3.27;2.43;;;5.40;99.90;;;;;;6167393;23;20788;-90
2021/12/04 08:16:52;;;;;;;1.53;1.43;;;5.60;99.90;;;;;;6167789;23;20414;-89
2021/12/04 08:19:23;;;;;;;3.00;2.47;;;5.60;99.90;;;;;;6193922;23;20734;-89
2021/12/04 08:21:50;;;;;;;2.20;2.00;;;5.70;99.90;;;;;;6168923;23;20561;-90
2021/12/04 08:24:16;;;;;;;3.53;3.20;;;5.70;99.90;;;;;;6166346;23;20449;-90
2021/12/04 08:26:43;;;;;;;2.20;2.00;;;5.80;99.90;;;;;;6166440;23;20470;-90
2021/12/04 08:29:13;;;;;;;1.77;1.67;;;5.80;99.90;;;;;;6167383;23;20159;-88
2021/12/04 08:31:39;;;;;;;2.63;2.00;;;5.80;99.90;;;;;;6167656;23;20540;-89
2021/12/04 08:34:05;;;;;;;1.47;1.37;;;5.80;99.90;;;;;;6168186;23;20818;-89
2021/12/04 08:36:32;;;;;;;1.50;1.40;;;5.80;99.90;;;;;;6168320;23;20222;-89
2021/12/04 08:39:03;;;;;;;1.67;1.57;;;5.90;99.90;;;;;;6167343;23;20235;-91
2021/12/04 08:41:29;;;;;;;2.00;1.80;;;5.90;99.90;;;;;;6166851;23;20407;-90
2021/12/04 08:43:55;;;;;;;2.07;1.77;;;5.90;99.90;;;;;;6167619;23;20966;-90
2021/12/04 08:46:22;;;;;;;8.40;5.00;;;5.90;99.90;;;;;;6166575;23;20475;-91
2021/12/04 08:48:49;;;;;;;12.60;8.23;;;5.90;99.90;;;;;;6167194;23;20390;-91
2021/12/04 08:51:17;;;;;;;6.50;5.40;;;5.90;99.90;;;;;;6167900;23;21003;-91
2021/12/04 08:53:43;;;;;;;3.37;3.10;;;5.90;99.90;;;;;;6165075;23;20858;-90
2021/12/04 08:56:09;;;;;;;3.73;2.40;;;5.90;99.90;;;;;;6165414;23;20395;-91
2021/12/04 08:58:39;;;;;;;2.50;2.30;;;5.90;99.90;;;;;;6165616;23;20832;-90
2021/12/04 09:01:12;;;;;;;4.90;2.20;;;5.90;99.90;;;;;;6168649;23;20625;-91
2021/12/04 09:03:41;;;;;;;2.30;2.10;;;6.00;99.90;;;;;;6166496;23;20785;-93
2021/12/04 09:06:08;;;;;;;2.63;2.43;;;6.20;99.90;;;;;;6166324;23;20438;-90
2021/12/04 09:08:34;;;;;;;5.60;3.57;;;6.20;99.90;;;;;;6168949;23;20410;-90
2021/12/04 09:11:15;;;;;;;3.13;2.83;;;6.20;99.90;;;;;;6168012;23;20751;-94
2021/12/04 09:13:42;;;;;;;2.87;2.67;;;6.20;99.90;;;;;;6143897;23;20900;-91
2021/12/04 09:16:09;;;;;;;3.40;3.10;;;6.20;99.90;;;;;;6167588;23;20398;-93
2021/12/04 09:18:35;;;;;;;4.50;3.40;;;6.20;99.90;;;;;;6168842;23;20473;-94
2021/12/04 09:21:22;;;;;;;4.93;3.60;;;6.20;99.90;;;;;;6169154;23;20399;-90
2021/12/04 09:23:52;;;;;;;3.87;3.37;;;6.20;99.90;;;;;;6191344;23;21135;-92
2021/12/04 09:29:38;;;;;;;3.37;3.13;;;6.20;99.90;;;;;;6194928;23;20394;-93
2021/12/04 10:34:51;;;;;;;1.20;0.97;;;8.60;99.90;;;;;;6082141;23;20409;-89
2021/12/04 10:37:49;;;;;;;0.80;0.80;;;8.60;99.90;;;;;;6169660;23;20403;-88
2021/12/04 10:40:23;;;;;;;0.97;0.87;;;8.60;99.90;;;;;;6167555;23;20763;-89
2021/12/04 10:43:22;;;;;;;0.80;0.70;;;8.60;99.90;;;;;;6168976;23;20402;-89
2021/12/04 10:46:10;;;;;;;1.50;0.83;;;8.60;99.90;;;;;;6166008;23;20402;-88
2021/12/04 10:48:46;;;;;;;;;;;;;;;;;;;;;
2021/12/04 10:51:36;;;;;;;0.90;0.90;;;8.60;99.90;;;;;;6192721;23;20417;-88
2021/12/04 10:54:39;;;;;;;0.40;0.40;;;8.70;99.90;;;;;;6162240;23;20423;-89
2021/12/04 11:18:42;;;;;;;0.90;0.90;;;9.20;99.90;;;;;;6193164;23;20568;-89
2021/12/04 11:21:57;;;;;;;0.97;0.73;;;9.30;99.90;;;;;;6195229;23;20375;-89
2021/12/04 11:25:28;;;;;;;;;;;;;;;;;;;;;
2021/12/04 11:37:19;;;;;;;0.73;0.60;;;9.60;99.90;;;;;;6191775;23;20410;-89
2021/12/04 11:45:59;;;;;;;;;;;;;;;;;;;;;
2021/12/04 11:49:15;;;;;;;;;;;;;;;;;;;;;
2021/12/04 11:59:03;;;;;;;0.53;0.53;;;9.70;99.90;;;;;;6102644;23;20394;-90
2021/12/04 12:01:32;;;;;;;1.20;0.80;;;9.80;99.90;;;;;;6166003;23;20995;-88
2021/12/04 12:04:04;;;;;;;0.60;0.60;;;9.80;99.90;;;;;;6167654;23;20402;-89
2021/12/04 12:06:34;;;;;;;0.70;0.70;;;9.90;99.90;;;;;;6168089;23;20452;-90
2021/12/04 12:09:15;;;;;;;1.70;1.60;;;10.00;99.90;;;;;;6169379;23;20450;-90
2021/12/04 12:12:31;;;;;;;1.13;1.03;;;9.90;99.90;;;;;;6167075;23;20731;-90
2021/12/04 12:15:18;;;;;;;1.53;1.43;;;9.80;99.90;;;;;;6191830;23;21041;-91
2021/12/04 12:17:44;;;;;;;0.70;0.70;;;9.70;99.90;;;;;;6167573;23;20422;-89
2021/12/04 12:20:19;;;;;;;0.90;0.90;;;9.60;99.90;;;;;;6193774;23;20773;-90
2021/12/04 12:23:07;;;;;;;0.60;0.60;;;9.60;99.90;;;;;;6167741;23;20726;-89
2021/12/04 12:36:02;;;;;;;1.53;1.43;;;9.40;99.90;;;;;;6167728;23;20406;-89
2021/12/04 12:37:19;;;;;;;1.50;1.40;;;9.40;99.90;;;;;;6193845;23;20423;-89
2021/12/04 12:40:06;;;;;;;1.00;0.80;;;9.40;99.90;;;;;;6167326;23;20749;-90
2021/12/04 12:42:35;;;;;;;0.93;0.90;;;9.30;99.90;;;;;;6168064;23;20403;-90
2021/12/04 12:45:25;;;;;;;1.03;0.80;;;9.30;99.90;;;;;;6143531;23;20410;-90
2021/12/04 12:48:13;;;;;;;1.23;0.80;;;9.20;99.90;;;;;;6166489;23;20562;-90
2021/12/04 12:50:53;;;;;;;0.70;0.70;;;9.10;99.90;;;;;;6172787;23;20403;-88
2021/12/04 12:53:28;;;;;;;0.60;0.60;;;9.10;99.90;;;;;;6164769;23;20403;-89
2021/12/04 12:56:08;;;;;;;1.80;0.80;;;9.20;99.90;;;;;;6169337;23;20394;-91
2021/12/04 12:58:44;;;;;;;0.70;0.70;;;9.30;99.90;;;;;;6198279;23;20406;-90
2021/12/04 13:13:35;;;;;;;0.60;0.60;;;9.60;99.90;;;;;;6197044;23;20884;-88
2021/12/04 13:16:12;;;;;;;0.93;0.90;;;9.60;99.90;;;;;;6166637;23;20405;-89
2021/12/04 13:18:38;;;;;;;1.10;1.00;;;9.50;99.90;;;;;;6171977;23;20401;-89
2021/12/04 13:21:09;;;;;;;2.40;0.83;;;9.50;99.90;;;;;;6193847;23;21874;-91
2021/12/04 13:23:36;;;;;;;0.70;0.70;;;9.40;99.90;;;;;;6168686;23;20163;-89
2021/12/04 13:26:11;;;;;;;3.10;0.80;;;9.30;99.90;;;;;;6167009;23;20448;-88
2021/12/04 13:28:40;;;;;;;1.07;0.97;;;9.30;99.90;;;;;;6169930;23;20841;-88
2021/12/04 13:31:09;;;;;;;0.63;0.63;;;9.20;99.90;;;;;;6199736;23;20367;-89
2021/12/04 13:33:47;;;;;;;0.93;0.90;;;9.20;99.90;;;;;;6166341;23;20395;-91
2021/12/04 13:36:26;;;;;;;1.20;1.10;;;9.20;99.90;;;;;;6142809;23;20456;-89
2021/12/04 13:39:14;;;;;;;0.87;0.83;;;9.30;99.90;;;;;;6170414;23;20784;-86
2021/12/04 13:41:42;;;;;;;0.80;0.80;;;9.40;99.90;;;;;;6167392;23;20926;-89
2021/12/04 13:44:10;;;;;;;0.70;0.70;;;9.40;99.90;;;;;;6170410;23;21099;-89
2021/12/04 13:46:49;;;;;;;0.50;0.50;;;9.40;99.90;;;;;;6166647;23;20442;-87
2021/12/04 13:49:18;;;;;;;0.53;0.50;;;9.50;99.90;;;;;;6197678;23;20682;-86
2021/12/04 13:51:51;;;;;;;0.70;0.70;;;9.50;99.90;;;;;;6141423;23;20433;-88
2021/12/04 13:54:18;;;;;;;0.90;0.70;;;9.40;99.90;;;;;;6168069;23;20418;-91
2021/12/04 13:56:44;;;;;;;0.80;0.47;;;9.30;99.90;;;;;;6164922;23;20395;-88
2021/12/04 13:59:11;;;;;;;0.60;0.60;;;9.30;99.90;;;;;;6163030;23;20422;-88
2021/12/04 14:01:42;;;;;;;0.63;0.63;;;9.30;99.90;;;;;;6165648;23;20403;-88
2021/12/04 14:04:15;;;;;;;1.13;0.57;;;9.20;99.90;;;;;;6161213;23;20495;-89
2021/12/04 14:06:57;;;;;;;1.50;0.60;;;9.10;99.90;;;;;;6164912;23;20831;-90
2021/12/04 14:09:31;;;;;;;0.40;0.40;;;9.00;99.90;;;;;;6166375;23;20390;-89
2021/12/04 14:11:57;;;;;;;1.57;0.60;;;8.90;99.90;;;;;;6169546;23;20403;-89
2021/12/04 14:14:27;;;;;;;1.57;0.60;;;8.80;99.90;;;;;;6161214;23;20460;-89
2021/12/04 14:16:54;;;;;;;0.63;0.63;;;8.80;99.90;;;;;;6165189;23;20727;-89
2021/12/04 14:19:26;;;;;;;0.90;0.90;;;8.80;99.90;;;;;;6161187;23;20421;-89
2021/12/04 14:21:53;;;;;;;0.80;0.80;;;8.70;99.90;;;;;;6163896;23;20833;-89
2021/12/04 14:24:33;;;;;;;0.80;0.80;;;8.70;99.90;;;;;;6167566;23;20657;-89
2021/12/04 14:27:02;;;;;;;0.60;0.60;;;8.70;99.90;;;;;;6164403;23;20557;-89
2021/12/04 14:29:37;;;;;;;0.60;0.60;;;8.70;99.90;;;;;;6165687;23;20816;-89
2021/12/04 14:32:04;;;;;;;0.70;0.70;;;8.70;99.90;;;;;;6164921;23;20425;-89
2021/12/04 14:34:30;;;;;;;1.10;1.00;;;8.70;99.90;;;;;;6166007;23;21067;-89
2021/12/04 14:37:15;;;;;;;0.87;0.87;;;8.60;99.90;;;;;;6166412;23;20411;-90
2021/12/04 14:39:45;;;;;;;0.80;0.80;;;8.60;99.90;;;;;;6166495;23;20431;-89
2021/12/04 14:42:23;;;;;;;1.50;0.77;;;8.60;99.90;;;;;;6166362;23;20402;-89
2021/12/04 14:44:57;;;;;;;0.70;0.70;;;8.60;99.90;;;;;;6165885;23;20699;-90
2021/12/04 14:47:28;;;;;;;1.20;0.63;;;8.60;99.90;;;;;;6192843;23;20775;-89
2021/12/04 14:49:59;;;;;;;0.60;0.60;;;8.60;99.90;;;;;;6167665;23;20428;-91
2021/12/04 14:52:27;;;;;;;0.53;0.53;;;8.60;99.90;;;;;;6165209;23;20390;-90
2021/12/04 14:54:56;;;;;;;0.90;0.80;;;8.60;99.90;;;;;;6165319;23;20402;-91
2021/12/04 14:57:26;;;;;;;0.70;0.67;;;8.60;99.90;;;;;;6161743;23;20402;-89
2021/12/04 15:00:06;;;;;;;0.70;0.67;;;8.60;99.90;;;;;;6161576;23;20398;-90
2021/12/04 15:02:35;;;;;;;1.07;1.00;;;8.50;99.90;;;;;;6164767;23;20403;-90
2021/12/04 15:05:05;;;;;;;0.60;0.60;;;8.60;99.90;;;;;;6164653;23;20951;-89
2021/12/04 15:07:33;;;;;;;0.97;0.97;;;8.60;99.90;;;;;;6165266;23;20689;-88
2021/12/04 15:10:04;;;;;;;0.70;0.70;;;8.60;99.90;;;;;;6163823;23;21479;-88
2021/12/04 15:12:35;;;;;;;1.53;1.43;;;8.60;99.90;;;;;;6164234;23;20406;-89
2021/12/04 15:15:07;;;;;;;1.33;1.23;;;8.60;99.90;;;;;;6165842;23;20399;-90
2021/12/04 15:17:33;;;;;;;2.40;1.43;;;8.60;99.90;;;;;;6163543;23;20840;-90
2021/12/04 15:20:15;;;;;;;1.20;1.10;;;8.60;99.90;;;;;;6165730;23;20399;-89
2021/12/04 15:22:44;;;;;;;0.90;0.87;;;8.60;99.90;;;;;;6163370;23;20760;-90
2021/12/04 15:25:13;;;;;;;1.50;1.20;;;8.70;99.90;;;;;;6163672;23;20410;-90
2021/12/04 15:27:40;;;;;;;1.00;1.00;;;8.70;99.90;;;;;;6164209;23;20783;-89
2021/12/04 15:30:10;;;;;;;1.10;1.00;;;8.70;99.90;;;;;;6166445;23;20397;-90
2021/12/04 15:32:39;;;;;;;1.50;1.40;;;8.80;99.90;;;;;;6165664;23;20429;-89
2021/12/04 15:35:34;;;;;;;1.10;1.00;;;8.80;99.90;;;;;;6166615;23;20404;-89
2021/12/04 15:40:46;;;;;;;1.60;1.50;;;8.70;99.90;;;;;;6192670;23;20485;-90
2021/12/04 15:43:21;;;;;;;1.20;1.10;;;8.80;99.90;;;;;;6165089;23;20560;-88
2021/12/04 15:51:33;;;;;;;1.10;1.00;;;8.80;99.90;;;;;;6193440;23;20395;-90
2021/12/04 15:54:05;;;;;;;1.03;0.90;;;8.80;99.90;;;;;;6165193;23;20473;-90
2021/12/04 15:56:43;;;;;;;1.23;1.07;;;8.80;99.90;;;;;;6166317;23;20422;-89
2021/12/04 15:59:30;;;;;;;1.50;1.40;;;8.70;99.90;;;;;;6164749;23;20493;-89
2021/12/04 16:02:09;;;;;;;1.70;1.20;;;8.70;99.90;;;;;;6164309;23;20409;-90
2021/12/04 16:04:34;;;;;;;3.93;1.10;;;8.70;99.90;;;;;;6162230;23;20398;-89
2021/12/04 16:07:04;;;;;;;1.90;1.20;;;8.70;99.90;;;;;;6194084;23;20430;-90
2021/12/04 16:09:40;;;;;;;1.00;1.00;;;8.70;99.90;;;;;;6163034;23;20862;-89
2021/12/04 16:12:12;;;;;;;1.07;1.03;;;8.70;99.90;;;;;;6164335;23;20171;-87
2021/12/04 16:14:52;;;;;;;3.10;1.20;;;8.70;99.90;;;;;;6162922;23;20399;-87
2021/12/04 16:17:18;;;;;;;1.13;0.97;;;8.70;99.90;;;;;;6164564;23;20429;-88
2021/12/04 16:19:46;;;;;;;1.00;0.93;;;8.70;99.90;;;;;;6166538;23;20879;-86
2021/12/04 16:22:13;;;;;;;1.20;1.10;;;8.70;99.90;;;;;;6165541;23;20225;-87
2021/12/04 16:24:42;;;;;;;1.10;1.00;;;8.70;99.90;;;;;;6165774;23;20409;-88
2021/12/04 16:27:15;;;;;;;1.40;1.30;;;8.70;99.90;;;;;;6162963;23;20789;-88
2021/12/04 16:29:50;;;;;;;1.70;1.40;;;8.70;99.90;;;;;;6159565;23;20393;-89
2021/12/04 16:35:19;;;;;;;1.50;1.40;;;8.70;99.90;;;;;;6191122;23;20722;-88
2021/12/04 16:37:47;;;;;;;2.30;1.40;;;8.50;99.90;;;;;;6166599;23;20876;-88
2021/12/04 16:40:26;;;;;;;1.40;1.30;;;8.50;99.90;;;;;;6164591;23;20395;-87
2021/12/04 16:43:03;;;;;;;1.20;1.10;;;8.40;99.90;;;;;;6162840;23;20744;-87
2021/12/04 16:45:30;;;;;;;1.30;1.20;;;8.40;99.90;;;;;;6162995;23;20402;-87
2021/12/04 16:48:11;;;;;;;1.30;1.20;;;8.30;99.90;;;;;;6162829;23;20438;-87
2021/12/04 16:58:56;;;;;;;1.90;1.30;;;8.30;99.90;;;;;;6191372;23;20390;-88
2021/12/04 17:01:22;;;;;;;1.50;1.30;;;8.30;99.90;;;;;;6164225;23;20831;-88
2021/12/04 17:03:57;;;;;;;1.60;1.50;;;8.20;99.90;;;;;;6168572;23;20405;-88
2021/12/04 17:06:26;;;;;;;2.07;1.37;;;8.10;99.90;;;;;;6163774;23;20432;-90